sensor_id;sensor_type;location;lat;lon;timestamp;P1;durP1;ratioP1;P2;durP2;ratioP2
56401;SDS011;42299;35.160;26.100;2022-08-04T00:00:53;9.90;;;5.20;;
56401;SDS011;42299;35.160;26.100;2022-08-04T00:03:48;10.65;;;4.95;;
56401;SDS011;42299;35.160;26.100;2022-08-04T00:05:19;8.05;;;4.70;;
56401;SDS011;42299;35.160;26.100;2022-08-04T00:06:53;8.48;;;4.93;;
56401;SDS011;42299;35.160;26.100;2022-08-04T00:08:21;11.52;;;4.80;;
56401;SDS011;42299;35.160;26.100;2022-08-04T00:09:52;11.73;;;5.22;;
56401;SDS011;42299;35.160;26.100;2022-08-04T00:11:22;9.05;;;4.53;;
56401;SDS011;42299;35.160;26.100;2022-08-04T00:12:50;13.18;;;4.65;;
56401;SDS011;42299;35.160;26.100;2022-08-04T00:14:16;12.05;;;5.50;;
56401;SDS011;42299;35.160;26.100;2022-08-04T00:15:42;13.73;;;4.72;;
56401;SDS011;42299;35.160;26.100;2022-08-04T00:17:06;9.50;;;4.43;;
56401;SDS011;42299;35.160;26.100;2022-08-04T00:18:32;12.35;;;5.30;;
56401;SDS011;42299;35.160;26.100;2022-08-04T00:19:55;8.25;;;4.50;;
56401;SDS011;42299;35.160;26.100;2022-08-04T00:21:21;5.97;;;3.88;;
56401;SDS011;42299;35.160;26.100;2022-08-04T00:22:47;10.45;;;5.13;;
56401;SDS011;42299;35.160;26.100;2022-08-04T00:24:12;8.82;;;4.45;;
56401;SDS011;42299;35.160;26.100;2022-08-04T00:25:37;8.35;;;4.60;;
56401;SDS011;42299;35.160;26.100;2022-08-04T00:27:01;8.32;;;4.50;;
56401;SDS011;42299;35.160;26.100;2022-08-04T00:28:24;16.10;;;6.47;;
56401;SDS011;42299;35.160;26.100;2022-08-04T00:29:46;6.90;;;4.18;;
56401;SDS011;42299;35.160;26.100;2022-08-04T00:31:09;7.57;;;4.47;;
56401;SDS011;42299;35.160;26.100;2022-08-04T00:33:53;9.02;;;4.15;;
56401;SDS011;42299;35.160;26.100;2022-08-04T00:35:16;10.00;;;4.68;;
56401;SDS011;42299;35.160;26.100;2022-08-04T00:36:39;10.18;;;4.97;;
56401;SDS011;42299;35.160;26.100;2022-08-04T00:38:03;6.90;;;3.95;;
56401;SDS011;42299;35.160;26.100;2022-08-04T00:39:26;8.95;;;4.72;;
56401;SDS011;42299;35.160;26.100;2022-08-04T00:40:52;8.25;;;4.68;;
56401;SDS011;42299;35.160;26.100;2022-08-04T00:42:36;8.60;;;4.35;;
56401;SDS011;42299;35.160;26.100;2022-08-04T00:44:08;10.65;;;4.95;;
56401;SDS011;42299;35.160;26.100;2022-08-04T00:45:47;13.57;;;4.68;;
56401;SDS011;42299;35.160;26.100;2022-08-04T00:47:43;10.25;;;4.78;;
56401;SDS011;42299;35.160;26.100;2022-08-04T00:49:25;9.75;;;4.75;;
56401;SDS011;42299;35.160;26.100;2022-08-04T00:51:17;8.40;;;4.68;;
56401;SDS011;42299;35.160;26.100;2022-08-04T00:52:52;10.27;;;4.25;;
56401;SDS011;42299;35.160;26.100;2022-08-04T00:54:24;9.18;;;4.13;;
56401;SDS011;42299;35.160;26.100;2022-08-04T00:55:57;10.40;;;4.65;;
56401;SDS011;42299;35.160;26.100;2022-08-04T00:57:30;11.05;;;4.70;;
56401;SDS011;42299;35.160;26.100;2022-08-04T00:59:13;7.88;;;4.43;;
56401;SDS011;42299;35.160;26.100;2022-08-04T01:00:45;14.60;;;5.93;;
56401;SDS011;42299;35.160;26.100;2022-08-04T01:02:16;8.07;;;4.80;;
56401;SDS011;42299;35.160;26.100;2022-08-04T01:03:49;8.45;;;4.75;;
56401;SDS011;42299;35.160;26.100;2022-08-04T01:05:19;6.93;;;3.78;;
56401;SDS011;42299;35.160;26.100;2022-08-04T01:06:49;8.80;;;4.43;;
56401;SDS011;42299;35.160;26.100;2022-08-04T01:08:48;8.40;;;4.53;;
56401;SDS011;42299;35.160;26.100;2022-08-04T01:10:19;8.57;;;4.20;;
56401;SDS011;42299;35.160;26.100;2022-08-04T01:11:51;8.88;;;5.07;;
56401;SDS011;42299;35.160;26.100;2022-08-04T01:13:31;9.85;;;4.80;;
56401;SDS011;42299;35.160;26.100;2022-08-04T01:15:09;7.18;;;4.45;;
56401;SDS011;42299;35.160;26.100;2022-08-04T01:16:44;9.20;;;4.55;;
56401;SDS011;42299;35.160;26.100;2022-08-04T01:18:10;10.43;;;4.55;;
56401;SDS011;42299;35.160;26.100;2022-08-04T01:19:58;8.27;;;4.00;;
56401;SDS011;42299;35.160;26.100;2022-08-04T01:25:39;7.03;;;4.03;;
56401;SDS011;42299;35.160;26.100;2022-08-04T01:27:24;16.60;;;5.05;;
56401;SDS011;42299;35.160;26.100;2022-08-04T01:28:58;11.55;;;4.93;;
56401;SDS011;42299;35.160;26.100;2022-08-04T01:30:26;11.13;;;4.32;;
56401;SDS011;42299;35.160;26.100;2022-08-04T01:31:57;9.90;;;4.57;;
56401;SDS011;42299;35.160;26.100;2022-08-04T01:33:22;8.65;;;4.50;;
56401;SDS011;42299;35.160;26.100;2022-08-04T01:34:50;9.35;;;5.38;;
56401;SDS011;42299;35.160;26.100;2022-08-04T01:36:14;12.10;;;4.57;;
56401;SDS011;42299;35.160;26.100;2022-08-04T01:37:41;8.75;;;4.88;;
56401;SDS011;42299;35.160;26.100;2022-08-04T01:39:10;12.57;;;4.95;;
56401;SDS011;42299;35.160;26.100;2022-08-04T01:40:48;8.45;;;4.43;;
56401;SDS011;42299;35.160;26.100;2022-08-04T01:42:13;8.50;;;4.30;;
56401;SDS011;42299;35.160;26.100;2022-08-04T01:43:39;12.05;;;4.70;;
56401;SDS011;42299;35.160;26.100;2022-08-04T01:45:05;10.85;;;4.53;;
56401;SDS011;42299;35.160;26.100;2022-08-04T01:46:29;9.88;;;4.53;;
56401;SDS011;42299;35.160;26.100;2022-08-04T01:47:55;11.25;;;4.68;;
56401;SDS011;42299;35.160;26.100;2022-08-04T01:49:18;10.25;;;4.60;;
56401;SDS011;42299;35.160;26.100;2022-08-04T01:50:41;10.95;;;4.78;;
56401;SDS011;42299;35.160;26.100;2022-08-04T01:52:06;8.98;;;4.50;;
56401;SDS011;42299;35.160;26.100;2022-08-04T01:53:31;12.13;;;4.68;;
56401;SDS011;42299;35.160;26.100;2022-08-04T01:54:55;7.43;;;4.60;;
56401;SDS011;42299;35.160;26.100;2022-08-04T01:56:18;7.78;;;4.72;;
56401;SDS011;42299;35.160;26.100;2022-08-04T01:57:43;7.55;;;4.60;;
56401;SDS011;42299;35.160;26.100;2022-08-04T01:59:07;8.13;;;4.75;;
56401;SDS011;42299;35.160;26.100;2022-08-04T02:00:30;7.63;;;4.65;;
56401;SDS011;42299;35.160;26.100;2022-08-04T02:01:53;12.25;;;5.22;;
56401;SDS011;42299;35.160;26.100;2022-08-04T02:03:14;9.60;;;4.97;;
56401;SDS011;42299;35.160;26.100;2022-08-04T02:04:41;9.07;;;4.95;;
56401;SDS011;42299;35.160;26.100;2022-08-04T02:06:07;7.78;;;4.80;;
56401;SDS011;42299;35.160;26.100;2022-08-04T02:07:42;13.00;;;4.85;;
56401;SDS011;42299;35.160;26.100;2022-08-04T02:09:21;8.73;;;5.68;;
56401;SDS011;42299;35.160;26.100;2022-08-04T02:10:52;10.48;;;5.20;;
56401;SDS011;42299;35.160;26.100;2022-08-04T02:12:24;9.63;;;4.72;;
56401;SDS011;42299;35.160;26.100;2022-08-04T02:13:53;11.05;;;4.72;;
56401;SDS011;42299;35.160;26.100;2022-08-04T02:15:22;7.75;;;4.47;;
56401;SDS011;42299;35.160;26.100;2022-08-04T02:16:49;8.60;;;4.57;;
56401;SDS011;42299;35.160;26.100;2022-08-04T02:18:15;9.55;;;4.88;;
56401;SDS011;42299;35.160;26.100;2022-08-04T02:19:48;6.65;;;4.32;;
56401;SDS011;42299;35.160;26.100;2022-08-04T02:21:19;6.32;;;4.50;;
56401;SDS011;42299;35.160;26.100;2022-08-04T02:22:46;8.80;;;4.93;;
56401;SDS011;42299;35.160;26.100;2022-08-04T02:24:19;9.68;;;5.03;;
56401;SDS011;42299;35.160;26.100;2022-08-04T02:25:48;9.50;;;4.50;;
56401;SDS011;42299;35.160;26.100;2022-08-04T02:27:18;7.18;;;4.40;;
56401;SDS011;42299;35.160;26.100;2022-08-04T02:28:46;8.65;;;5.18;;
56401;SDS011;42299;35.160;26.100;2022-08-04T02:30:13;8.18;;;5.05;;
56401;SDS011;42299;35.160;26.100;2022-08-04T02:31:37;9.85;;;4.88;;
56401;SDS011;42299;35.160;26.100;2022-08-04T02:33:02;9.95;;;4.55;;
56401;SDS011;42299;35.160;26.100;2022-08-04T02:34:27;9.55;;;4.88;;
56401;SDS011;42299;35.160;26.100;2022-08-04T02:35:55;13.15;;;4.80;;
56401;SDS011;42299;35.160;26.100;2022-08-04T02:37:19;8.93;;;4.80;;
56401;SDS011;42299;35.160;26.100;2022-08-04T02:38:49;9.32;;;4.75;;
56401;SDS011;42299;35.160;26.100;2022-08-04T02:40:17;8.63;;;4.60;;
56401;SDS011;42299;35.160;26.100;2022-08-04T02:41:42;11.30;;;5.00;;
56401;SDS011;42299;35.160;26.100;2022-08-04T02:43:05;9.93;;;4.35;;
56401;SDS011;42299;35.160;26.100;2022-08-04T02:44:29;10.65;;;5.10;;
56401;SDS011;42299;35.160;26.100;2022-08-04T02:45:54;8.52;;;4.53;;
56401;SDS011;42299;35.160;26.100;2022-08-04T02:47:16;10.02;;;4.38;;
56401;SDS011;42299;35.160;26.100;2022-08-04T02:48:44;8.77;;;4.88;;
56401;SDS011;42299;35.160;26.100;2022-08-04T02:50:07;10.73;;;5.00;;
56401;SDS011;42299;35.160;26.100;2022-08-04T02:51:36;9.43;;;4.55;;
56401;SDS011;42299;35.160;26.100;2022-08-04T02:53:03;10.00;;;5.15;;
56401;SDS011;42299;35.160;26.100;2022-08-04T02:54:26;11.00;;;4.70;;
56401;SDS011;42299;35.160;26.100;2022-08-04T02:55:52;8.85;;;4.70;;
56401;SDS011;42299;35.160;26.100;2022-08-04T02:57:16;6.75;;;4.65;;
56401;SDS011;42299;35.160;26.100;2022-08-04T02:58:39;9.63;;;5.00;;
56401;SDS011;42299;35.160;26.100;2022-08-04T03:00:06;10.60;;;4.93;;
56401;SDS011;42299;35.160;26.100;2022-08-04T03:01:31;9.23;;;5.07;;
56401;SDS011;42299;35.160;26.100;2022-08-04T03:02:55;9.30;;;4.85;;
56401;SDS011;42299;35.160;26.100;2022-08-04T03:04:38;11.13;;;4.70;;
56401;SDS011;42299;35.160;26.100;2022-08-04T03:06:14;11.40;;;4.55;;
56401;SDS011;42299;35.160;26.100;2022-08-04T03:12:20;11.48;;;4.80;;
56401;SDS011;42299;35.160;26.100;2022-08-04T03:16:00;10.15;;;5.28;;
56401;SDS011;42299;35.160;26.100;2022-08-04T03:17:56;10.25;;;4.75;;
56401;SDS011;42299;35.160;26.100;2022-08-04T03:19:54;10.32;;;4.40;;
56401;SDS011;42299;35.160;26.100;2022-08-04T03:21:42;10.00;;;4.68;;
56401;SDS011;42299;35.160;26.100;2022-08-04T03:25:23;8.60;;;4.82;;
56401;SDS011;42299;35.160;26.100;2022-08-04T03:27:07;9.93;;;4.88;;
56401;SDS011;42299;35.160;26.100;2022-08-04T03:30:28;10.20;;;3.97;;
56401;SDS011;42299;35.160;26.100;2022-08-04T03:34:13;7.97;;;4.65;;
56401;SDS011;42299;35.160;26.100;2022-08-04T03:38:06;8.45;;;4.45;;
56401;SDS011;42299;35.160;26.100;2022-08-04T03:40:19;8.55;;;4.70;;
56401;SDS011;42299;35.160;26.100;2022-08-04T03:43:54;8.18;;;4.72;;
56401;SDS011;42299;35.160;26.100;2022-08-04T03:47:45;8.90;;;4.63;;
56401;SDS011;42299;35.160;26.100;2022-08-04T03:49:31;8.52;;;4.55;;
56401;SDS011;42299;35.160;26.100;2022-08-04T03:51:28;8.27;;;4.43;;
56401;SDS011;42299;35.160;26.100;2022-08-04T03:53:30;10.05;;;4.40;;
56401;SDS011;42299;35.160;26.100;2022-08-04T03:55:12;11.27;;;4.75;;
56401;SDS011;42299;35.160;26.100;2022-08-04T03:57:02;10.60;;;4.82;;
56401;SDS011;42299;35.160;26.100;2022-08-04T03:58:55;10.63;;;4.50;;
56401;SDS011;42299;35.160;26.100;2022-08-04T04:00:43;7.72;;;4.45;;
56401;SDS011;42299;35.160;26.100;2022-08-04T04:16:26;11.98;;;3.85;;
56401;SDS011;42299;35.160;26.100;2022-08-04T04:18:04;14.10;;;3.40;;
56401;SDS011;42299;35.160;26.100;2022-08-04T04:19:59;12.85;;;3.70;;
56401;SDS011;42299;35.160;26.100;2022-08-04T04:21:50;8.52;;;3.67;;
56401;SDS011;42299;35.160;26.100;2022-08-04T04:23:47;6.30;;;3.42;;
56401;SDS011;42299;35.160;26.100;2022-08-04T04:25:35;10.52;;;3.22;;
56401;SDS011;42299;35.160;26.100;2022-08-04T04:27:10;8.77;;;3.22;;
56401;SDS011;42299;35.160;26.100;2022-08-04T04:29:00;6.43;;;3.38;;
56401;SDS011;42299;35.160;26.100;2022-08-04T04:30:34;6.55;;;3.13;;
56401;SDS011;42299;35.160;26.100;2022-08-04T04:32:09;7.22;;;3.35;;
56401;SDS011;42299;35.160;26.100;2022-08-04T04:33:46;10.35;;;3.38;;
56401;SDS011;42299;35.160;26.100;2022-08-04T04:35:22;10.75;;;3.80;;
56401;SDS011;42299;35.160;26.100;2022-08-04T04:36:57;5.25;;;2.85;;
56401;SDS011;42299;35.160;26.100;2022-08-04T04:40:30;8.27;;;3.08;;
56401;SDS011;42299;35.160;26.100;2022-08-04T04:42:18;9.38;;;3.13;;
56401;SDS011;42299;35.160;26.100;2022-08-04T04:46:05;9.25;;;3.08;;
56401;SDS011;42299;35.160;26.100;2022-08-04T04:47:38;6.95;;;2.65;;
56401;SDS011;42299;35.160;26.100;2022-08-04T04:49:13;6.90;;;2.83;;
56401;SDS011;42299;35.160;26.100;2022-08-04T04:50:50;11.60;;;3.05;;
56401;SDS011;42299;35.160;26.100;2022-08-04T04:52:20;7.13;;;2.70;;
56401;SDS011;42299;35.160;26.100;2022-08-04T04:53:50;6.65;;;2.72;;
56401;SDS011;42299;35.160;26.100;2022-08-04T04:55:18;7.75;;;2.85;;
56401;SDS011;42299;35.160;26.100;2022-08-04T04:56:43;7.30;;;2.13;;
56401;SDS011;42299;35.160;26.100;2022-08-04T04:58:10;7.78;;;3.15;;
56401;SDS011;42299;35.160;26.100;2022-08-04T04:59:40;10.68;;;2.45;;
56401;SDS011;42299;35.160;26.100;2022-08-04T05:01:19;6.90;;;2.30;;
56401;SDS011;42299;35.160;26.100;2022-08-04T05:03:04;6.72;;;2.33;;
56401;SDS011;42299;35.160;26.100;2022-08-04T05:06:44;7.47;;;2.55;;
56401;SDS011;42299;35.160;26.100;2022-08-04T05:10:22;5.85;;;2.55;;
56401;SDS011;42299;35.160;26.100;2022-08-04T05:11:59;7.38;;;2.50;;
56401;SDS011;42299;35.160;26.100;2022-08-04T05:13:43;7.28;;;2.30;;
56401;SDS011;42299;35.160;26.100;2022-08-04T05:15:07;6.93;;;2.50;;
56401;SDS011;42299;35.160;26.100;2022-08-04T05:16:36;8.10;;;2.50;;
56401;SDS011;42299;35.160;26.100;2022-08-04T05:18:01;6.10;;;2.30;;
56401;SDS011;42299;35.160;26.100;2022-08-04T05:19:27;5.65;;;2.40;;
56401;SDS011;42299;35.160;26.100;2022-08-04T05:21:03;7.53;;;3.00;;
56401;SDS011;42299;35.160;26.100;2022-08-04T05:22:41;8.93;;;2.67;;
56401;SDS011;42299;35.160;26.100;2022-08-04T05:24:09;5.13;;;2.58;;
56401;SDS011;42299;35.160;26.100;2022-08-04T05:25:36;7.25;;;2.60;;
56401;SDS011;42299;35.160;26.100;2022-08-04T05:27:04;6.90;;;2.45;;
56401;SDS011;42299;35.160;26.100;2022-08-04T05:28:32;5.68;;;2.40;;
56401;SDS011;42299;35.160;26.100;2022-08-04T05:29:58;6.90;;;2.25;;
56401;SDS011;42299;35.160;26.100;2022-08-04T05:31:24;8.13;;;2.45;;
56401;SDS011;42299;35.160;26.100;2022-08-04T05:32:53;11.35;;;2.63;;
56401;SDS011;42299;35.160;26.100;2022-08-04T05:34:20;11.18;;;2.70;;
56401;SDS011;42299;35.160;26.100;2022-08-04T05:35:48;10.82;;;2.25;;
56401;SDS011;42299;35.160;26.100;2022-08-04T05:37:14;8.75;;;2.20;;
56401;SDS011;42299;35.160;26.100;2022-08-04T05:38:38;8.18;;;2.45;;
56401;SDS011;42299;35.160;26.100;2022-08-04T05:40:02;6.28;;;2.65;;
56401;SDS011;42299;35.160;26.100;2022-08-04T05:41:27;6.47;;;2.33;;
56401;SDS011;42299;35.160;26.100;2022-08-04T05:42:51;10.25;;;2.42;;
56401;SDS011;42299;35.160;26.100;2022-08-04T05:44:16;5.97;;;2.00;;
56401;SDS011;42299;35.160;26.100;2022-08-04T05:45:40;8.75;;;2.40;;
56401;SDS011;42299;35.160;26.100;2022-08-04T05:47:07;6.28;;;2.08;;
56401;SDS011;42299;35.160;26.100;2022-08-04T05:48:34;8.32;;;2.13;;
56401;SDS011;42299;35.160;26.100;2022-08-04T05:49:57;5.70;;;2.30;;
56401;SDS011;42299;35.160;26.100;2022-08-04T05:51:20;5.10;;;2.28;;
56401;SDS011;42299;35.160;26.100;2022-08-04T05:52:44;7.93;;;2.78;;
56401;SDS011;42299;35.160;26.100;2022-08-04T05:54:07;7.57;;;2.60;;
56401;SDS011;42299;35.160;26.100;2022-08-04T05:55:30;8.88;;;2.25;;
56401;SDS011;42299;35.160;26.100;2022-08-04T05:56:53;10.50;;;2.97;;
56401;SDS011;42299;35.160;26.100;2022-08-04T05:58:17;6.30;;;2.38;;
56401;SDS011;42299;35.160;26.100;2022-08-04T05:59:40;7.22;;;2.70;;
56401;SDS011;42299;35.160;26.100;2022-08-04T06:01:06;6.72;;;2.67;;
56401;SDS011;42299;35.160;26.100;2022-08-04T06:02:31;5.20;;;1.95;;
56401;SDS011;42299;35.160;26.100;2022-08-04T06:03:57;4.50;;;2.28;;
56401;SDS011;42299;35.160;26.100;2022-08-04T06:05:20;7.53;;;2.35;;
56401;SDS011;42299;35.160;26.100;2022-08-04T06:06:43;6.70;;;2.45;;
56401;SDS011;42299;35.160;26.100;2022-08-04T06:08:07;6.75;;;1.92;;
56401;SDS011;42299;35.160;26.100;2022-08-04T06:09:29;11.20;;;3.35;;
56401;SDS011;42299;35.160;26.100;2022-08-04T06:10:52;5.53;;;2.28;;
56401;SDS011;42299;35.160;26.100;2022-08-04T06:12:19;7.32;;;2.58;;
56401;SDS011;42299;35.160;26.100;2022-08-04T06:13:47;5.70;;;2.38;;
56401;SDS011;42299;35.160;26.100;2022-08-04T06:15:16;5.07;;;2.00;;
56401;SDS011;42299;35.160;26.100;2022-08-04T06:16:40;4.30;;;2.40;;
56401;SDS011;42299;35.160;26.100;2022-08-04T06:18:05;4.75;;;2.30;;
56401;SDS011;42299;35.160;26.100;2022-08-04T06:19:32;6.13;;;2.10;;
56401;SDS011;42299;35.160;26.100;2022-08-04T06:20:56;7.15;;;2.40;;
56401;SDS011;42299;35.160;26.100;2022-08-04T06:22:23;6.80;;;2.85;;
56401;SDS011;42299;35.160;26.100;2022-08-04T06:23:48;6.57;;;2.42;;
56401;SDS011;42299;35.160;26.100;2022-08-04T06:25:13;5.47;;;2.38;;
56401;SDS011;42299;35.160;26.100;2022-08-04T06:26:39;5.82;;;2.10;;
56401;SDS011;42299;35.160;26.100;2022-08-04T06:28:04;5.30;;;2.30;;
56401;SDS011;42299;35.160;26.100;2022-08-04T06:29:27;5.65;;;2.20;;
56401;SDS011;42299;35.160;26.100;2022-08-04T06:30:55;5.03;;;2.38;;
56401;SDS011;42299;35.160;26.100;2022-08-04T06:32:22;6.07;;;2.30;;
56401;SDS011;42299;35.160;26.100;2022-08-04T06:33:50;5.30;;;2.47;;
56401;SDS011;42299;35.160;26.100;2022-08-04T06:35:16;3.97;;;2.33;;
56401;SDS011;42299;35.160;26.100;2022-08-04T06:36:38;6.95;;;2.33;;
56401;SDS011;42299;35.160;26.100;2022-08-04T06:38:02;7.47;;;2.63;;
56401;SDS011;42299;35.160;26.100;2022-08-04T06:39:24;5.32;;;2.40;;
56401;SDS011;42299;35.160;26.100;2022-08-04T06:40:49;7.10;;;2.40;;
56401;SDS011;42299;35.160;26.100;2022-08-04T06:42:12;6.60;;;2.28;;
56401;SDS011;42299;35.160;26.100;2022-08-04T06:43:36;6.13;;;2.50;;
56401;SDS011;42299;35.160;26.100;2022-08-04T06:44:59;6.05;;;2.67;;
56401;SDS011;42299;35.160;26.100;2022-08-04T06:46:23;5.93;;;2.38;;
56401;SDS011;42299;35.160;26.100;2022-08-04T06:47:47;5.32;;;2.30;;
56401;SDS011;42299;35.160;26.100;2022-08-04T06:49:10;5.38;;;2.65;;
56401;SDS011;42299;35.160;26.100;2022-08-04T06:50:36;4.50;;;2.08;;
56401;SDS011;42299;35.160;26.100;2022-08-04T06:52:01;5.15;;;2.50;;
56401;SDS011;42299;35.160;26.100;2022-08-04T06:53:24;7.38;;;2.10;;
56401;SDS011;42299;35.160;26.100;2022-08-04T06:54:47;4.85;;;2.13;;
56401;SDS011;42299;35.160;26.100;2022-08-04T06:56:11;6.03;;;2.08;;
56401;SDS011;42299;35.160;26.100;2022-08-04T06:57:35;8.43;;;2.38;;
56401;SDS011;42299;35.160;26.100;2022-08-04T06:58:58;5.90;;;2.40;;
56401;SDS011;42299;35.160;26.100;2022-08-04T07:00:22;4.93;;;2.22;;
56401;SDS011;42299;35.160;26.100;2022-08-04T07:01:46;9.23;;;2.70;;
56401;SDS011;42299;35.160;26.100;2022-08-04T07:03:10;6.47;;;2.08;;
56401;SDS011;42299;35.160;26.100;2022-08-04T07:04:32;4.28;;;2.20;;
56401;SDS011;42299;35.160;26.100;2022-08-04T07:05:56;10.63;;;2.67;;
56401;SDS011;42299;35.160;26.100;2022-08-04T07:07:20;6.35;;;2.40;;
56401;SDS011;42299;35.160;26.100;2022-08-04T07:08:45;6.43;;;2.40;;
56401;SDS011;42299;35.160;26.100;2022-08-04T07:10:08;5.97;;;2.58;;
56401;SDS011;42299;35.160;26.100;2022-08-04T07:11:32;7.32;;;2.72;;
56401;SDS011;42299;35.160;26.100;2022-08-04T07:12:55;8.25;;;2.72;;
56401;SDS011;42299;35.160;26.100;2022-08-04T07:14:18;6.10;;;2.30;;
56401;SDS011;42299;35.160;26.100;2022-08-04T07:15:43;7.57;;;2.20;;
56401;SDS011;42299;35.160;26.100;2022-08-04T07:17:07;9.40;;;2.70;;
56401;SDS011;42299;35.160;26.100;2022-08-04T07:18:31;6.68;;;2.67;;
56401;SDS011;42299;35.160;26.100;2022-08-04T07:19:53;8.85;;;3.83;;
56401;SDS011;42299;35.160;26.100;2022-08-04T07:21:22;4.93;;;2.13;;
56401;SDS011;42299;35.160;26.100;2022-08-04T07:22:46;7.55;;;2.17;;
56401;SDS011;42299;35.160;26.100;2022-08-04T07:24:10;7.45;;;2.33;;
56401;SDS011;42299;35.160;26.100;2022-08-04T07:25:32;8.02;;;2.65;;
56401;SDS011;42299;35.160;26.100;2022-08-04T07:26:55;6.47;;;2.67;;
56401;SDS011;42299;35.160;26.100;2022-08-04T07:28:19;5.95;;;2.72;;
56401;SDS011;42299;35.160;26.100;2022-08-04T07:29:42;5.63;;;2.20;;
56401;SDS011;42299;35.160;26.100;2022-08-04T07:31:05;5.07;;;2.42;;
56401;SDS011;42299;35.160;26.100;2022-08-04T07:32:30;6.53;;;2.47;;
56401;SDS011;42299;35.160;26.100;2022-08-04T07:33:53;8.07;;;2.78;;
56401;SDS011;42299;35.160;26.100;2022-08-04T07:35:16;8.32;;;2.53;;
56401;SDS011;42299;35.160;26.100;2022-08-04T07:36:42;6.88;;;2.55;;
56401;SDS011;42299;35.160;26.100;2022-08-04T07:38:05;6.80;;;2.30;;
56401;SDS011;42299;35.160;26.100;2022-08-04T07:39:28;5.53;;;2.92;;
56401;SDS011;42299;35.160;26.100;2022-08-04T07:40:53;6.30;;;2.30;;
56401;SDS011;42299;35.160;26.100;2022-08-04T07:42:16;8.30;;;3.65;;
56401;SDS011;42299;35.160;26.100;2022-08-04T07:43:39;5.03;;;2.45;;
56401;SDS011;42299;35.160;26.100;2022-08-04T07:46:23;7.35;;;2.90;;
56401;SDS011;42299;35.160;26.100;2022-08-04T07:49:07;6.60;;;2.53;;
56401;SDS011;42299;35.160;26.100;2022-08-04T07:50:31;8.35;;;2.55;;
56401;SDS011;42299;35.160;26.100;2022-08-04T07:51:57;6.43;;;2.60;;
56401;SDS011;42299;35.160;26.100;2022-08-04T07:53:20;8.65;;;2.35;;
56401;SDS011;42299;35.160;26.100;2022-08-04T07:54:43;7.38;;;2.83;;
56401;SDS011;42299;35.160;26.100;2022-08-04T07:56:06;7.82;;;2.63;;
56401;SDS011;42299;35.160;26.100;2022-08-04T07:57:28;6.97;;;2.40;;
56401;SDS011;42299;35.160;26.100;2022-08-04T07:58:51;9.98;;;2.90;;
56401;SDS011;42299;35.160;26.100;2022-08-04T08:00:14;7.20;;;2.65;;
56401;SDS011;42299;35.160;26.100;2022-08-04T08:01:37;6.93;;;2.85;;
56401;SDS011;42299;35.160;26.100;2022-08-04T08:03:00;6.45;;;2.85;;
56401;SDS011;42299;35.160;26.100;2022-08-04T08:04:24;9.00;;;2.97;;
56401;SDS011;42299;35.160;26.100;2022-08-04T08:05:47;8.35;;;3.05;;
56401;SDS011;42299;35.160;26.100;2022-08-04T08:07:10;8.48;;;3.25;;
56401;SDS011;42299;35.160;26.100;2022-08-04T08:08:36;10.10;;;2.67;;
56401;SDS011;42299;35.160;26.100;2022-08-04T08:09:58;11.10;;;3.28;;
56401;SDS011;42299;35.160;26.100;2022-08-04T08:11:21;6.75;;;2.58;;
56401;SDS011;42299;35.160;26.100;2022-08-04T08:12:43;8.80;;;2.83;;
56401;SDS011;42299;35.160;26.100;2022-08-04T08:14:06;6.07;;;2.63;;
56401;SDS011;42299;35.160;26.100;2022-08-04T08:15:29;9.48;;;3.20;;
56401;SDS011;42299;35.160;26.100;2022-08-04T08:16:52;7.43;;;2.58;;
56401;SDS011;42299;35.160;26.100;2022-08-04T08:18:15;7.43;;;2.63;;
56401;SDS011;42299;35.160;26.100;2022-08-04T08:19:37;9.52;;;2.97;;
56401;SDS011;42299;35.160;26.100;2022-08-04T08:20:59;9.05;;;2.50;;
56401;SDS011;42299;35.160;26.100;2022-08-04T08:22:23;9.13;;;2.97;;
56401;SDS011;42299;35.160;26.100;2022-08-04T08:23:45;6.28;;;3.50;;
56401;SDS011;42299;35.160;26.100;2022-08-04T08:25:08;5.38;;;2.67;;
56401;SDS011;42299;35.160;26.100;2022-08-04T08:26:31;5.90;;;2.65;;
56401;SDS011;42299;35.160;26.100;2022-08-04T08:27:55;7.90;;;2.83;;
56401;SDS011;42299;35.160;26.100;2022-08-04T08:29:17;8.82;;;2.40;;
56401;SDS011;42299;35.160;26.100;2022-08-04T08:30:40;9.32;;;2.97;;
56401;SDS011;42299;35.160;26.100;2022-08-04T08:32:03;9.25;;;2.70;;
56401;SDS011;42299;35.160;26.100;2022-08-04T08:33:32;9.60;;;3.20;;
56401;SDS011;42299;35.160;26.100;2022-08-04T08:34:55;8.77;;;2.70;;
56401;SDS011;42299;35.160;26.100;2022-08-04T08:36:19;8.90;;;3.10;;
56401;SDS011;42299;35.160;26.100;2022-08-04T08:37:49;8.55;;;2.60;;
56401;SDS011;42299;35.160;26.100;2022-08-04T08:39:18;8.95;;;2.85;;
56401;SDS011;42299;35.160;26.100;2022-08-04T08:40:49;7.93;;;2.95;;
56401;SDS011;42299;35.160;26.100;2022-08-04T08:42:23;9.55;;;3.10;;
56401;SDS011;42299;35.160;26.100;2022-08-04T08:44:11;9.98;;;3.70;;
56401;SDS011;42299;35.160;26.100;2022-08-04T08:45:57;7.82;;;3.08;;
56401;SDS011;42299;35.160;26.100;2022-08-04T08:47:39;7.25;;;2.65;;
56401;SDS011;42299;35.160;26.100;2022-08-04T08:51:19;7.72;;;3.25;;
56401;SDS011;42299;35.160;26.100;2022-08-04T08:55:04;11.25;;;3.13;;
56401;SDS011;42299;35.160;26.100;2022-08-04T08:56:38;9.07;;;3.00;;
56401;SDS011;42299;35.160;26.100;2022-08-04T08:58:15;7.75;;;3.40;;
56401;SDS011;42299;35.160;26.100;2022-08-04T08:59:53;18.75;;;3.78;;
56401;SDS011;42299;35.160;26.100;2022-08-04T09:01:32;8.40;;;2.97;;
56401;SDS011;42299;35.160;26.100;2022-08-04T09:03:15;9.35;;;3.58;;
56401;SDS011;42299;35.160;26.100;2022-08-04T09:04:57;12.23;;;3.25;;
56401;SDS011;42299;35.160;26.100;2022-08-04T09:06:40;9.27;;;3.00;;
56401;SDS011;42299;35.160;26.100;2022-08-04T09:08:13;7.93;;;2.95;;
56401;SDS011;42299;35.160;26.100;2022-08-04T09:09:59;11.15;;;3.30;;
56401;SDS011;42299;35.160;26.100;2022-08-04T09:11:27;8.25;;;3.17;;
56401;SDS011;42299;35.160;26.100;2022-08-04T09:12:58;9.82;;;3.30;;
56401;SDS011;42299;35.160;26.100;2022-08-04T09:14:25;6.97;;;3.17;;
56401;SDS011;42299;35.160;26.100;2022-08-04T09:15:57;8.75;;;2.88;;
56401;SDS011;42299;35.160;26.100;2022-08-04T09:17:28;7.47;;;3.08;;
56401;SDS011;42299;35.160;26.100;2022-08-04T09:18:55;9.30;;;3.53;;
56401;SDS011;42299;35.160;26.100;2022-08-04T09:20:28;8.57;;;3.22;;
56401;SDS011;42299;35.160;26.100;2022-08-04T09:21:56;7.75;;;2.95;;
56401;SDS011;42299;35.160;26.100;2022-08-04T09:23:23;9.80;;;3.38;;
56401;SDS011;42299;35.160;26.100;2022-08-04T09:24:56;8.20;;;3.60;;
56401;SDS011;42299;35.160;26.100;2022-08-04T09:26:25;10.73;;;3.80;;
56401;SDS011;42299;35.160;26.100;2022-08-04T09:27:53;11.30;;;3.22;;
56401;SDS011;42299;35.160;26.100;2022-08-04T09:29:18;9.52;;;3.75;;
56401;SDS011;42299;35.160;26.100;2022-08-04T09:30:50;6.28;;;3.33;;
56401;SDS011;42299;35.160;26.100;2022-08-04T09:32:20;8.32;;;3.20;;
56401;SDS011;42299;35.160;26.100;2022-08-04T09:34:06;9.57;;;3.40;;
56401;SDS011;42299;35.160;26.100;2022-08-04T09:35:33;8.82;;;3.50;;
56401;SDS011;42299;35.160;26.100;2022-08-04T09:37:05;8.55;;;3.50;;
56401;SDS011;42299;35.160;26.100;2022-08-04T09:38:43;8.38;;;3.97;;
56401;SDS011;42299;35.160;26.100;2022-08-04T09:40:16;6.82;;;3.25;;
56401;SDS011;42299;35.160;26.100;2022-08-04T09:41:45;10.23;;;3.67;;
56401;SDS011;42299;35.160;26.100;2022-08-04T09:43:26;10.02;;;3.50;;
56401;SDS011;42299;35.160;26.100;2022-08-04T09:44:59;10.52;;;3.70;;